Terminal Aerodrome Forecast
Issued by NWS

Home | Current Version | Previous Version | Text Only | Print | Product List | Glossary On
Versions: 1 2 3 4 5 6 7 8 9 10 11 12 13 14 15 16 17 18 19 20 21 22
056
FTAK31 PAJN 211930 CCA
TAFAPG
TAF COR
PAPG 211930Z 2118/2218 31005KT 3SM -SN BR SCT010 OVC020
      WS020/13025KT
     FM212100 33004KT P6SM BKN030
     FM212300 28003KT P6SM BKN060
     FM220300 25002KT 5SM BR SCT250
     FM220600 23003KT 3SM BR BCFG FEW002 SCT060
     FM220900 24003KT 1SM BR VCFG SCT002 BKN060
     FM221200 24004KT 1SM -SN BR OVC015
     FM221400 VRB03KT 1SM -RA BR OVC015
      AMD LTD TO CLD VIS AND WIND 2206/2215=

USA.gov is the U.S. government's official web portal to all federal, state and local government web resources and services.